createdAt,value
2018-02-10T00:01:34.003Z,17.76
2018-02-10T00:04:05.501Z,16.54
2018-02-10T00:06:33.790Z,17.00
2018-02-10T00:09:03.058Z,16.64
2018-02-10T00:11:31.305Z,16.52
2018-02-10T00:14:13.113Z,17.84
2018-02-10T00:16:41.396Z,16.92
2018-02-10T00:19:17.289Z,16.90
2018-02-10T00:21:45.600Z,16.20
2018-02-10T00:24:13.856Z,16.40
2018-02-10T00:26:42.107Z,17.76
2018-02-10T00:29:13.746Z,19.46
2018-02-10T00:31:42.026Z,17.08
2018-02-10T00:34:13.814Z,18.66
2018-02-10T00:36:42.089Z,17.54
2018-02-10T00:39:10.337Z,16.72
2018-02-10T00:41:42.347Z,18.36
2018-02-10T00:44:10.606Z,18.22
2018-02-10T00:46:45.362Z,16.50
2018-02-10T00:49:13.625Z,19.14
2018-02-10T00:51:45.895Z,20.68
2018-02-10T00:54:14.196Z,18.50
2018-02-10T00:56:42.470Z,21.40
2018-02-10T00:59:10.750Z,19.08
2018-02-10T01:01:39.029Z,20.86
2018-02-10T01:04:07.281Z,19.86
2018-02-10T01:06:35.566Z,20.10
2018-02-10T01:09:03.823Z,18.16
2018-02-10T01:11:32.122Z,18.26
2018-02-10T01:14:04.982Z,20.64
2018-02-10T01:16:33.267Z,18.96
2018-02-10T01:19:07.652Z,18.86
2018-02-10T01:21:35.926Z,20.74
2018-02-10T01:24:25.914Z,20.88
2018-02-10T01:26:54.215Z,20.02
2018-02-10T01:29:29.690Z,20.78
2018-02-10T01:31:58.499Z,21.26
2018-02-10T01:34:26.745Z,22.24
2018-02-10T01:36:54.232Z,19.28
2018-02-10T01:39:23.482Z,22.32
2018-02-10T01:41:51.734Z,21.66
2018-02-10T01:44:23.361Z,21.24
2018-02-10T01:46:51.609Z,20.68
2018-02-10T01:49:19.907Z,20.30
2018-02-10T01:51:48.157Z,23.54
2018-02-10T01:54:20.777Z,21.12
2018-02-10T01:56:49.025Z,22.88
2018-02-10T01:59:20.868Z,23.34
2018-02-10T02:01:49.134Z,19.96
2018-02-10T02:04:20.961Z,22.60
2018-02-10T02:06:49.208Z,21.60
2018-02-10T02:09:24.698Z,21.10
2018-02-10T02:11:52.958Z,22.78
2018-02-10T02:14:29.613Z,20.94
2018-02-10T02:16:58.970Z,21.34
2018-02-10T02:19:28.143Z,20.30
2018-02-10T02:21:56.440Z,22.64
2018-02-10T02:24:37.533Z,22.60
2018-02-10T02:27:05.804Z,23.74
2018-02-10T02:29:39.248Z,20.74
2018-02-10T02:32:07.552Z,21.16
2018-02-10T02:34:37.795Z,22.38
2018-02-10T02:37:06.096Z,22.90
2018-02-10T02:39:34.382Z,23.44
2018-02-10T02:42:02.645Z,24.44
2018-02-10T02:44:34.267Z,23.08
2018-02-10T02:47:02.547Z,22.16
2018-02-10T02:49:45.778Z,23.98
2018-02-10T02:52:14.041Z,25.00
2018-02-10T02:54:42.333Z,23.36
2018-02-10T02:57:10.651Z,25.46
2018-02-10T02:59:38.930Z,25.18
2018-02-10T03:02:07.204Z,21.86
2018-02-10T03:04:40.444Z,24.96
2018-02-10T03:07:08.717Z,24.76
2018-02-10T03:09:54.203Z,24.90
2018-02-10T03:12:22.472Z,23.96
2018-02-10T03:14:58.321Z,24.02
2018-02-10T03:17:26.633Z,26.28
2018-02-10T03:19:59.873Z,23.06
2018-02-10T03:22:28.965Z,23.94
2018-02-10T03:24:57.217Z,25.48
2018-02-10T03:27:24.727Z,27.98
2018-02-10T03:30:04.636Z,24.10
2018-02-10T03:32:32.929Z,25.70
2018-02-10T03:35:09.741Z,26.96
2018-02-10T03:37:38.041Z,25.68
2018-02-10T03:40:07.283Z,27.74
2018-02-10T03:42:35.598Z,26.98
2018-02-10T03:45:07.393Z,30.26
2018-02-10T03:47:35.690Z,31.10
2018-02-10T03:50:08.488Z,29.66
2018-02-10T03:52:36.785Z,33.44
2018-02-10T03:55:05.057Z,28.80
2018-02-10T03:57:33.361Z,30.30
2018-02-10T04:00:01.645Z,31.22
2018-02-10T04:02:29.918Z,34.14
2018-02-10T04:04:58.278Z,35.90
2018-02-10T04:07:40.071Z,33.82
2018-02-10T04:10:08.768Z,34.58
2018-02-10T04:12:37.046Z,31.50
2018-02-10T04:15:05.317Z,32.06
2018-02-10T04:17:40.242Z,31.52
2018-02-10T04:20:08.501Z,35.40
2018-02-10T04:22:40.521Z,33.42
2018-02-10T04:25:08.801Z,34.28
2018-02-10T04:27:36.324Z,31.04
2018-02-10T04:30:04.625Z,32.12
2018-02-10T04:32:36.612Z,32.07
2018-02-10T04:35:04.897Z,32.40
2018-02-10T04:37:33.157Z,31.42
2018-02-10T04:40:01.441Z,35.06
2018-02-10T04:42:29.706Z,32.16
2018-02-10T04:44:58.886Z,30.86
2018-02-10T04:47:30.561Z,29.60
2018-02-10T04:49:59.766Z,31.58
2018-02-10T04:52:29.113Z,30.24
2018-02-10T04:54:58.105Z,31.80
2018-02-10T04:57:26.359Z,29.32
2018-02-10T04:59:54.651Z,29.94
2018-02-10T05:02:22.970Z,28.40
2018-02-10T05:04:51.227Z,27.96
2018-02-10T05:07:23.121Z,27.90
2018-02-10T05:09:51.393Z,30.80
2018-02-10T05:12:21.665Z,30.66
2018-02-10T05:14:49.955Z,26.60
2018-02-10T05:17:21.347Z,30.66
2018-02-10T05:19:49.653Z,25.44
2018-02-10T05:22:17.916Z,29.00
2018-02-10T05:24:46.208Z,27.70
2018-02-10T05:27:20.375Z,29.80
2018-02-10T05:29:48.622Z,28.06
2018-02-10T05:32:17.819Z,27.98
2018-02-10T05:34:46.105Z,27.14
2018-02-10T05:37:21.539Z,27.22
2018-02-10T05:39:49.832Z,26.52
2018-02-10T05:42:21.684Z,27.96
2018-02-10T05:44:49.960Z,25.46
2018-02-10T05:47:31.219Z,26.64
2018-02-10T05:50:00.587Z,27.10
2018-02-10T05:52:30.079Z,25.44
2018-02-10T05:54:59.284Z,25.46
2018-02-10T05:57:27.560Z,25.14
2018-02-10T05:59:55.847Z,27.84
2018-02-10T06:02:25.137Z,26.82
2018-02-10T06:04:53.390Z,26.54
2018-02-10T06:07:28.806Z,26.50
2018-02-10T06:09:57.057Z,25.20
2018-02-10T06:12:28.023Z,23.60
2018-02-10T06:14:56.286Z,25.42
2018-02-10T06:17:30.208Z,26.30
2018-02-10T06:19:58.476Z,25.48
2018-02-10T06:22:26.824Z,25.44
2018-02-10T06:24:54.355Z,22.94
2018-02-10T06:27:23.640Z,21.80
2018-02-10T06:29:51.894Z,23.20
2018-02-10T06:32:26.155Z,23.28
2018-02-10T06:34:53.648Z,22.80
2018-02-10T06:37:21.911Z,25.78
2018-02-10T06:39:50.190Z,22.44
2018-02-10T06:42:29.467Z,20.74
2018-02-10T06:44:58.852Z,22.20
2018-02-10T06:47:29.783Z,20.50
2018-02-10T06:49:59.416Z,23.40
2018-02-10T06:52:29.614Z,20.66
2018-02-10T06:54:58.966Z,19.22
2018-02-10T06:57:29.275Z,22.48
2018-02-10T06:59:57.597Z,21.78
2018-02-10T07:02:45.822Z,22.76
2018-02-10T07:05:14.112Z,22.84
2018-02-10T07:07:42.416Z,21.46
2018-02-10T07:10:11.632Z,22.34
2018-02-10T07:12:39.892Z,26.40
2018-02-10T07:15:08.176Z,24.04
2018-02-10T07:17:36.449Z,22.54
2018-02-10T07:20:04.759Z,23.94
2018-02-10T07:22:33.057Z,24.70
2018-02-10T07:25:07.688Z,23.34
2018-02-10T07:27:36.086Z,24.96
2018-02-10T07:30:29.117Z,24.86
2018-02-10T07:32:58.289Z,28.82
2018-02-10T07:35:28.183Z,24.08
2018-02-10T07:37:56.489Z,20.98
2018-02-10T07:40:24.764Z,24.04
2018-02-10T07:42:53.058Z,26.62
2018-02-10T07:45:24.340Z,22.54
2018-02-10T07:47:52.634Z,26.54
2018-02-10T07:50:20.917Z,26.44
2018-02-10T07:52:49.188Z,26.32
2018-02-10T07:55:17.497Z,25.42
2018-02-10T07:57:44.986Z,24.12
2018-02-10T08:00:15.197Z,22.72
2018-02-10T08:02:43.509Z,25.04
2018-02-10T08:05:11.793Z,24.70
2018-02-10T08:07:39.290Z,24.06
2018-02-10T08:10:10.738Z,23.24
2018-02-10T08:12:39.003Z,23.92
2018-02-10T08:15:14.604Z,27.90
2018-02-10T08:17:42.868Z,24.72
2018-02-10T08:20:18.708Z,24.56
2018-02-10T08:22:46.977Z,24.88
2018-02-10T08:25:17.224Z,27.02
2018-02-10T08:27:45.513Z,25.08
2018-02-10T08:30:13.773Z,24.68
2018-02-10T08:32:42.089Z,26.68
2018-02-10T08:35:11.342Z,25.54
2018-02-10T08:37:39.612Z,24.82
2018-02-10T08:40:07.919Z,26.04
2018-02-10T08:42:36.190Z,22.70
2018-02-10T08:45:04.458Z,26.22
2018-02-10T08:47:32.761Z,25.66
2018-02-10T08:50:17.895Z,25.90
2018-02-10T08:52:46.173Z,26.50
2018-02-10T08:55:16.410Z,23.54
2018-02-10T08:57:44.703Z,26.56
2018-02-10T09:00:16.493Z,25.54
2018-02-10T09:02:44.804Z,24.24
2018-02-10T09:05:15.069Z,25.74
2018-02-10T09:07:43.341Z,21.84
2018-02-10T09:10:11.653Z,26.80
2018-02-10T09:12:39.928Z,24.92
2018-02-10T09:15:09.228Z,24.68
2018-02-10T09:17:37.497Z,27.06
2018-02-10T09:20:07.744Z,23.60
2018-02-10T09:22:36.262Z,26.34
2018-02-10T09:25:04.533Z,24.68
2018-02-10T09:27:32.838Z,27.80
2018-02-10T09:30:01.113Z,30.16
2018-02-10T09:32:30.711Z,26.64
2018-02-10T09:35:06.452Z,25.00
2018-02-10T09:37:34.760Z,28.54
2018-02-10T09:40:09.501Z,26.22
2018-02-10T09:42:37.786Z,27.64
2018-02-10T09:45:07.065Z,29.44
2018-02-10T09:47:35.377Z,28.12
2018-02-10T09:50:06.835Z,28.36
2018-02-10T09:52:35.128Z,27.70
2018-02-10T09:55:03.382Z,27.26
2018-02-10T09:57:30.890Z,30.60
2018-02-10T09:59:59.996Z,28.84
2018-02-10T10:02:29.289Z,27.44
2018-02-10T10:04:57.577Z,30.36
2018-02-10T10:07:25.844Z,30.02
2018-02-10T10:09:54.134Z,28.86
2018-02-10T10:12:22.391Z,30.58
2018-02-10T10:14:50.665Z,27.88
2018-02-10T10:17:18.965Z,32.42
2018-02-10T10:19:47.226Z,30.76
2018-02-10T10:22:15.532Z,33.28
2018-02-10T10:24:43.849Z,28.86
2018-02-10T10:27:12.116Z,31.70
2018-02-10T10:29:40.410Z,31.12
2018-02-10T10:32:09.643Z,32.82
2018-02-10T10:34:37.899Z,31.82
2018-02-10T10:37:06.213Z,32.00
2018-02-10T10:39:34.484Z,30.36
2018-02-10T10:42:04.717Z,31.30
2018-02-10T10:44:33.024Z,33.64
2018-02-10T10:47:01.305Z,29.92
2018-02-10T10:49:50.437Z,32.80
2018-02-10T10:52:18.711Z,32.80
2018-02-10T10:54:50.544Z,31.24
2018-02-10T10:57:18.843Z,82.78
2018-02-10T10:59:47.122Z,41.66
2018-02-10T11:02:15.401Z,32.82
2018-02-10T11:04:43.698Z,33.62
2018-02-10T11:07:12.938Z,35.42
2018-02-10T11:09:41.220Z,33.28
2018-02-10T11:12:09.574Z,35.48
2018-02-10T11:14:37.888Z,35.66
2018-02-10T11:17:06.173Z,32.52
2018-02-10T11:19:34.430Z,29.88
2018-02-10T11:22:19.423Z,31.68
2018-02-10T11:24:47.740Z,33.26
2018-02-10T11:27:19.148Z,31.70
2018-02-10T11:29:47.431Z,32.82
2018-02-10T11:32:15.705Z,33.22
2018-02-10T11:34:44.002Z,31.90
2018-02-10T11:37:12.292Z,31.82
2018-02-10T11:39:40.652Z,30.46
2018-02-10T11:42:08.960Z,30.74
2018-02-10T11:44:37.269Z,31.40
2018-02-10T11:47:05.589Z,28.68
2018-02-10T11:49:33.865Z,30.42
2018-02-10T11:52:02.197Z,32.54
2018-02-10T11:54:30.493Z,31.26
2018-02-10T11:56:59.286Z,28.88
2018-02-10T11:59:28.234Z,28.98
2018-02-10T12:01:56.530Z,30.50
2018-02-10T12:04:24.878Z,30.84
2018-02-10T12:06:53.137Z,30.88
2018-02-10T12:09:21.453Z,30.24
2018-02-10T12:11:49.734Z,31.74
2018-02-10T12:14:21.541Z,27.22
2018-02-10T12:16:49.917Z,26.72
2018-02-10T12:19:19.263Z,27.92
2018-02-10T12:21:46.751Z,29.22
2018-02-10T12:24:15.034Z,26.82
2018-02-10T12:26:43.286Z,28.70
2018-02-10T12:29:11.634Z,27.04
2018-02-10T12:31:39.908Z,27.48
2018-02-10T12:34:08.228Z,28.74
2018-02-10T12:36:36.532Z,26.74
2018-02-10T12:39:21.961Z,27.34
2018-02-10T12:41:50.268Z,26.68
2018-02-10T12:44:18.558Z,30.24
2018-02-10T12:46:46.843Z,29.74
2018-02-10T12:49:20.771Z,26.02
2018-02-10T12:51:49.071Z,24.44
2018-02-10T12:54:20.935Z,23.44
2018-02-10T12:56:49.211Z,23.22
2018-02-10T12:59:17.505Z,26.82
2018-02-10T13:01:45.795Z,23.94
2018-02-10T13:04:14.097Z,25.10
2018-02-10T13:06:42.383Z,24.14
2018-02-10T13:09:10.758Z,23.68
2018-02-10T13:11:39.013Z,23.94
2018-02-10T13:14:08.274Z,25.78
2018-02-10T13:16:36.532Z,26.28
2018-02-10T13:19:04.822Z,28.42
2018-02-10T13:21:33.121Z,26.26
2018-02-10T13:24:01.392Z,26.64
2018-02-10T13:26:29.690Z,29.28
2018-02-10T13:28:58.934Z,25.62
2018-02-10T13:31:28.922Z,25.06
2018-02-10T13:33:58.061Z,25.30
2018-02-10T13:36:26.410Z,28.40
2018-02-10T13:38:54.716Z,23.60
2018-02-10T13:41:22.977Z,23.66
2018-02-10T13:43:50.508Z,26.64
2018-02-10T13:46:22.057Z,24.62
2018-02-10T13:48:50.372Z,23.46
2018-02-10T13:51:29.238Z,23.26
2018-02-10T13:53:57.569Z,21.98
2018-02-10T13:56:25.928Z,22.76
2018-02-10T13:58:54.189Z,27.38
2018-02-10T14:01:26.143Z,25.42
2018-02-10T14:03:54.402Z,23.90
2018-02-10T14:06:22.698Z,25.48
2018-02-10T14:08:50.985Z,22.80
2018-02-10T14:11:19.325Z,22.22
2018-02-10T14:13:47.617Z,21.90
2018-02-10T14:16:15.931Z,22.50
2018-02-10T14:18:44.240Z,24.18
2018-02-10T14:21:12.535Z,24.44
2018-02-10T14:23:40.845Z,21.70
2018-02-10T14:26:09.153Z,23.90
2018-02-10T14:28:37.430Z,25.62
2018-02-10T14:31:05.733Z,20.94
2018-02-10T14:33:34.051Z,21.96
2018-02-10T14:36:02.394Z,23.88
2018-02-10T14:38:30.705Z,22.94
2018-02-10T14:41:00.036Z,25.00
2018-02-10T14:43:29.091Z,23.52
2018-02-10T14:46:00.821Z,22.30
2018-02-10T14:48:30.054Z,22.92
2018-02-10T14:51:02.989Z,25.76
2018-02-10T14:53:31.301Z,28.34
2018-02-10T14:56:00.501Z,24.68
2018-02-10T14:58:29.535Z,23.46
2018-02-10T15:00:58.940Z,23.14
2018-02-10T15:03:27.311Z,23.94
2018-02-10T15:05:55.742Z,23.94
2018-02-10T15:08:24.015Z,20.86
2018-02-10T15:10:52.425Z,22.02
2018-02-10T15:13:20.744Z,21.28
2018-02-10T15:15:49.048Z,23.18
2018-02-10T15:18:17.303Z,21.22
2018-02-10T15:20:45.612Z,23.42
2018-02-10T15:23:13.097Z,21.00
2018-02-10T15:25:41.419Z,20.86
2018-02-10T15:28:09.711Z,20.50
2018-02-10T15:30:53.086Z,22.26
2018-02-10T15:33:33.372Z,21.84
2018-02-10T15:36:01.674Z,21.64
2018-02-10T15:38:29.955Z,21.70
2018-02-10T15:40:58.879Z,21.60
2018-02-10T15:43:27.157Z,20.60
2018-02-10T15:45:55.437Z,21.28
2018-02-10T15:48:23.700Z,18.48
2018-02-10T15:50:52.004Z,19.00
2018-02-10T15:53:20.266Z,17.82
2018-02-10T15:55:48.573Z,18.54
2018-02-10T15:58:16.840Z,16.20
2018-02-10T16:00:48.282Z,17.54
2018-02-10T16:03:16.561Z,16.06
2018-02-10T16:05:45.833Z,17.40
2018-02-10T16:08:14.121Z,14.84
2018-02-10T16:10:44.433Z,17.44
2018-02-10T16:13:12.740Z,14.82
2018-02-10T16:15:44.726Z,14.16
2018-02-10T16:18:13.025Z,16.52
2018-02-10T16:20:41.300Z,16.90
2018-02-10T16:23:09.587Z,16.28
2018-02-10T16:25:43.740Z,16.40
2018-02-10T16:28:12.013Z,14.80
2018-02-10T16:30:50.858Z,15.60
2018-02-10T16:33:19.142Z,16.60
2018-02-10T16:35:47.399Z,16.26
2018-02-10T16:38:15.695Z,16.28
2018-02-10T16:40:43.953Z,16.88
2018-02-10T16:43:12.652Z,15.76
2018-02-10T16:45:58.986Z,20.14
2018-02-10T16:48:27.279Z,15.94
2018-02-10T16:50:58.606Z,18.34
2018-02-10T16:53:26.906Z,15.28
2018-02-10T16:55:56.130Z,16.86
2018-02-10T16:58:24.409Z,16.06
2018-02-10T17:01:07.369Z,15.68
2018-02-10T17:03:35.641Z,16.12
2018-02-10T17:06:16.464Z,15.00
2018-02-10T17:08:44.732Z,15.84
2018-02-10T17:11:13.028Z,15.86
2018-02-10T17:13:41.349Z,15.74
2018-02-10T17:16:09.602Z,15.86
2018-02-10T17:18:47.644Z,16.32
2018-02-10T17:21:15.921Z,15.04
2018-02-10T17:23:46.198Z,16.64
2018-02-10T17:26:14.467Z,16.32
2018-02-10T17:28:42.769Z,16.74
2018-02-10T17:31:11.036Z,15.58
2018-02-10T17:33:39.349Z,16.14
2018-02-10T17:36:06.866Z,15.96
2018-02-10T17:38:35.122Z,16.72
2018-02-10T17:41:02.684Z,15.78
2018-02-10T17:43:47.829Z,14.52
2018-02-10T17:46:16.144Z,13.68
2018-02-10T17:49:00.919Z,14.28
2018-02-10T17:51:29.946Z,15.60
2018-02-10T17:53:59.170Z,13.62
2018-02-10T17:56:26.692Z,13.80
2018-02-10T17:59:00.512Z,16.54
2018-02-10T18:01:29.932Z,14.52
2018-02-10T18:04:00.137Z,14.20
2018-02-10T18:06:27.675Z,13.54
2018-02-10T18:08:59.060Z,13.26
2018-02-10T18:11:28.185Z,12.88
2018-02-10T18:14:00.039Z,11.88
2018-02-10T18:16:28.901Z,12.06
2018-02-10T18:18:57.172Z,11.84
2018-02-10T18:21:25.444Z,14.26
2018-02-10T18:23:53.743Z,13.06
2018-02-10T18:26:21.998Z,13.12
2018-02-10T18:28:53.629Z,12.36
2018-02-10T18:31:21.928Z,12.28
2018-02-10T18:33:50.208Z,11.74
2018-02-10T18:36:20.465Z,12.36
2018-02-10T18:38:48.733Z,12.78
2018-02-10T18:41:17.050Z,12.28
2018-02-10T18:43:45.329Z,11.62
2018-02-10T18:46:13.591Z,12.72
2018-02-10T18:48:41.897Z,12.88
2018-02-10T18:51:11.141Z,14.02
2018-02-10T18:53:39.423Z,14.64
2018-02-10T18:56:07.729Z,13.40
2018-02-10T18:58:36.024Z,14.08
2018-02-10T19:01:05.217Z,13.60
2018-02-10T19:03:33.490Z,13.78
2018-02-10T19:06:02.701Z,13.38
2018-02-10T19:08:31.002Z,13.94
2018-02-10T19:11:01.191Z,14.32
2018-02-10T19:13:30.350Z,15.18
2018-02-10T19:16:00.611Z,14.44
2018-02-10T19:18:29.701Z,13.86
2018-02-10T19:21:08.265Z,15.50
2018-02-10T19:23:36.537Z,14.60
2018-02-10T19:26:04.813Z,13.20
2018-02-10T19:28:33.125Z,14.42
2018-02-10T19:31:00.628Z,12.72
2018-02-10T19:33:30.045Z,13.20
2018-02-10T19:35:59.113Z,14.00
2018-02-10T19:38:28.422Z,13.90
2018-02-10T19:40:56.687Z,13.06
2018-02-10T19:43:30.799Z,13.44
2018-02-10T19:45:59.680Z,14.28
2018-02-10T19:48:28.661Z,13.26
2018-02-10T19:50:56.175Z,12.56
2018-02-10T19:53:25.500Z,12.34
2018-02-10T19:55:53.770Z,12.12
2018-02-10T19:58:22.973Z,10.96
2018-02-10T20:00:51.294Z,12.22
2018-02-10T20:03:21.552Z,11.96
2018-02-10T20:05:49.900Z,12.26
2018-02-10T20:08:18.150Z,10.98
2018-02-10T20:10:46.424Z,10.06
2018-02-10T20:13:14.706Z,10.16
2018-02-10T20:15:43.020Z,9.82
2018-02-10T20:18:11.287Z,10.18
2018-02-10T20:20:39.542Z,10.50
2018-02-10T20:23:07.831Z,9.96
2018-02-10T20:25:41.299Z,9.34
2018-02-10T20:28:09.591Z,9.26
2018-02-10T20:30:37.887Z,9.78
2018-02-10T20:33:06.134Z,7.98
2018-02-10T20:35:34.437Z,8.04
2018-02-10T20:38:02.696Z,7.50
2018-02-10T20:40:31.001Z,8.10
2018-02-10T20:43:00.501Z,7.34
2018-02-10T20:45:30.137Z,8.54
2018-02-10T20:47:59.053Z,8.84
2018-02-10T20:50:30.452Z,7.78
2018-02-10T20:52:59.053Z,8.60
2018-02-10T20:55:31.190Z,6.74
2018-02-10T20:58:00.147Z,7.12
2018-02-10T21:00:29.092Z,6.68
2018-02-10T21:02:58.627Z,6.28
2018-02-10T21:05:30.503Z,5.98
2018-02-10T21:07:59.522Z,6.94
2018-02-10T21:10:29.560Z,5.78
2018-02-10T21:12:58.879Z,6.54
2018-02-10T21:15:27.161Z,6.90
2018-02-10T21:17:55.433Z,7.12
2018-02-10T21:20:30.053Z,6.34
2018-02-10T21:22:57.549Z,6.82
2018-02-10T21:25:32.820Z,6.42
2018-02-10T21:28:01.113Z,7.34
2018-02-10T21:30:36.858Z,6.86
2018-02-10T21:33:05.145Z,5.80
2018-02-10T21:35:34.406Z,7.18
2018-02-10T21:38:02.668Z,6.02
2018-02-10T21:40:31.909Z,6.70
2018-02-10T21:42:59.951Z,6.06
2018-02-10T21:45:30.210Z,7.86
2018-02-10T21:47:58.499Z,6.22
2018-02-10T21:50:32.291Z,6.64
2018-02-10T21:53:00.068Z,5.76
2018-02-10T21:55:29.242Z,7.58
2018-02-10T21:58:01.040Z,5.36
2018-02-10T22:00:30.507Z,5.88
2018-02-10T22:03:00.117Z,6.20
2018-02-10T22:05:27.594Z,7.52
2018-02-10T22:07:55.898Z,6.74
2018-02-10T22:10:31.261Z,6.78
2018-02-10T22:13:00.584Z,6.38
2018-02-10T22:15:29.821Z,6.88
2018-02-10T22:17:58.704Z,7.02
2018-02-10T22:20:29.225Z,7.18
2018-02-10T22:22:58.225Z,6.08
2018-02-10T22:25:26.462Z,6.12
2018-02-10T22:27:55.765Z,6.34
2018-02-10T22:30:24.033Z,5.44
2018-02-10T22:33:02.156Z,5.72
2018-02-10T22:35:30.411Z,5.90
2018-02-10T22:37:59.480Z,5.80
2018-02-10T22:40:29.185Z,6.12
2018-02-10T22:42:58.097Z,6.40
2018-02-10T22:45:26.389Z,6.30
2018-02-10T22:47:56.649Z,6.16
2018-02-10T22:50:24.944Z,5.44
2018-02-10T22:53:12.778Z,6.42
2018-02-10T22:55:41.081Z,6.72
2018-02-10T22:58:09.352Z,5.42
2018-02-10T23:00:37.640Z,6.28
2018-02-10T23:03:05.944Z,6.92
2018-02-10T23:05:37.609Z,6.96
2018-02-10T23:08:05.901Z,7.30
2018-02-10T23:10:44.417Z,6.84
2018-02-10T23:13:12.708Z,6.78
2018-02-10T23:15:40.967Z,7.20
2018-02-10T23:18:09.265Z,7.20
2018-02-10T23:20:37.556Z,5.64
2018-02-10T23:23:05.841Z,7.20
2018-02-10T23:25:34.108Z,7.08
2018-02-10T23:28:03.285Z,7.12
2018-02-10T23:30:31.580Z,6.52
2018-02-10T23:32:59.845Z,7.82
2018-02-10T23:35:34.494Z,8.14
2018-02-10T23:38:02.852Z,7.42
2018-02-10T23:40:31.106Z,6.28
2018-02-10T23:43:00.561Z,7.36
2018-02-10T23:45:30.438Z,6.10
2018-02-10T23:47:59.736Z,6.22
2018-02-10T23:50:31.426Z,6.36
2018-02-10T23:52:59.728Z,5.76
2018-02-10T23:55:35.389Z,6.06
2018-02-10T23:58:03.684Z,5.88
